sensor_id;sensor_type;location;lat;lon;timestamp;pressure;altitude;pressure_sealevel;temperature;humidity
58973;BME280;44750;52.040;7.472;2022-11-09T00:04:33;99606.38;;;14.64;75.28
58973;BME280;44750;52.040;7.472;2022-11-09T00:09:33;99589.59;;;14.67;75.57
58973;BME280;44750;52.040;7.472;2022-11-09T00:14:34;99592.97;;;14.69;77.24
58973;BME280;44750;52.040;7.472;2022-11-09T00:19:34;99570.75;;;14.65;78.22
58973;BME280;44750;52.040;7.472;2022-11-09T00:24:34;99567.56;;;14.62;78.01
58973;BME280;44750;52.040;7.472;2022-11-09T00:29:34;99570.72;;;14.59;77.92
58973;BME280;44750;52.040;7.472;2022-11-09T00:34:34;99572.78;;;14.50;77.06
58973;BME280;44750;52.040;7.472;2022-11-09T00:39:35;99581.81;;;14.50;75.24
58973;BME280;44750;52.040;7.472;2022-11-09T00:44:35;99586.63;;;14.48;74.61
58973;BME280;44750;52.040;7.472;2022-11-09T00:49:35;99593.09;;;14.47;73.96
58973;BME280;44750;52.040;7.472;2022-11-09T00:54:35;99593.75;;;14.49;73.18
58973;BME280;44750;52.040;7.472;2022-11-09T00:59:36;99595.19;;;14.45;72.88
58973;BME280;44750;52.040;7.472;2022-11-09T01:04:36;99599.78;;;14.45;72.40
58973;BME280;44750;52.040;7.472;2022-11-09T01:09:36;99600.00;;;14.50;72.33
58973;BME280;44750;52.040;7.472;2022-11-09T01:14:36;99608.81;;;14.45;72.04
58973;BME280;44750;52.040;7.472;2022-11-09T01:19:36;99606.91;;;14.39;71.35
58973;BME280;44750;52.040;7.472;2022-11-09T01:24:37;99608.38;;;14.35;70.32
58973;BME280;44750;52.040;7.472;2022-11-09T01:29:37;99611.72;;;14.30;69.29
58973;BME280;44750;52.040;7.472;2022-11-09T01:34:37;99611.69;;;14.24;68.08
58973;BME280;44750;52.040;7.472;2022-11-09T01:39:37;99626.34;;;14.23;65.43
58973;BME280;44750;52.040;7.472;2022-11-09T01:44:37;99645.38;;;14.23;63.64
58973;BME280;44750;52.040;7.472;2022-11-09T01:49:48;99647.91;;;14.24;62.63
58973;BME280;44750;52.040;7.472;2022-11-09T01:54:55;99637.22;;;14.23;61.54
58973;BME280;44750;52.040;7.472;2022-11-09T02:00:04;99646.88;;;14.25;61.06
58973;BME280;44750;52.040;7.472;2022-11-09T02:05:09;99651.44;;;14.25;61.02
58973;BME280;44750;52.040;7.472;2022-11-09T02:15:17;99633.22;;;14.18;61.37
58973;BME280;44750;52.040;7.472;2022-11-09T02:20:18;99629.66;;;14.18;61.14
58973;BME280;44750;52.040;7.472;2022-11-09T02:25:18;99633.81;;;14.14;60.83
58973;BME280;44750;52.040;7.472;2022-11-09T02:30:18;99629.63;;;14.11;60.11
58973;BME280;44750;52.040;7.472;2022-11-09T02:35:19;99645.56;;;14.14;60.30
58973;BME280;44750;52.040;7.472;2022-11-09T02:40:25;99619.16;;;14.08;60.52
58973;BME280;44750;52.040;7.472;2022-11-09T02:45:27;99598.59;;;13.99;60.50
58973;BME280;44750;52.040;7.472;2022-11-09T02:50:27;99608.44;;;13.93;59.56
58973;BME280;44750;52.040;7.472;2022-11-09T02:55:28;99623.47;;;13.89;58.18
58973;BME280;44750;52.040;7.472;2022-11-09T03:00:28;99618.25;;;13.87;58.24
58973;BME280;44750;52.040;7.472;2022-11-09T03:05:28;99611.91;;;13.80;58.44
58973;BME280;44750;52.040;7.472;2022-11-09T03:10:28;99620.69;;;13.76;58.05
58973;BME280;44750;52.040;7.472;2022-11-09T03:15:28;99615.22;;;13.69;58.04
58973;BME280;44750;52.040;7.472;2022-11-09T03:20:29;99640.50;;;13.69;57.09
58973;BME280;44750;52.040;7.472;2022-11-09T03:25:29;99650.16;;;13.72;56.24
58973;BME280;44750;52.040;7.472;2022-11-09T03:30:30;99676.94;;;13.75;56.29
58973;BME280;44750;52.040;7.472;2022-11-09T03:35:30;99662.31;;;13.76;56.88
58973;BME280;44750;52.040;7.472;2022-11-09T03:40:31;99688.16;;;13.94;58.00
58973;BME280;44750;52.040;7.472;2022-11-09T03:45:31;99671.81;;;13.94;60.22
58973;BME280;44750;52.040;7.472;2022-11-09T03:50:33;99673.50;;;13.95;62.14
58973;BME280;44750;52.040;7.472;2022-11-09T03:55:34;99633.13;;;13.92;64.34
58973;BME280;44750;52.040;7.472;2022-11-09T04:00:35;99620.34;;;13.92;67.15
58973;BME280;44750;52.040;7.472;2022-11-09T04:05:35;99621.59;;;13.90;69.86
58973;BME280;44750;52.040;7.472;2022-11-09T04:10:35;99589.72;;;13.83;71.28
58973;BME280;44750;52.040;7.472;2022-11-09T04:15:36;99566.94;;;13.84;73.18
58973;BME280;44750;52.040;7.472;2022-11-09T04:20:37;99556.06;;;13.84;75.19
58973;BME280;44750;52.040;7.472;2022-11-09T04:25:39;99520.31;;;13.87;79.07
58973;BME280;44750;52.040;7.472;2022-11-09T04:30:39;99509.00;;;13.84;81.95
58973;BME280;44750;52.040;7.472;2022-11-09T04:35:40;99488.28;;;13.83;84.79
58973;BME280;44750;52.040;7.472;2022-11-09T04:40:40;99479.72;;;13.93;87.58
58973;BME280;44750;52.040;7.472;2022-11-09T04:45:41;99455.22;;;13.86;89.42
58973;BME280;44750;52.040;7.472;2022-11-09T04:50:41;99469.47;;;13.88;89.32
58973;BME280;44750;52.040;7.472;2022-11-09T04:55:41;99460.84;;;13.84;89.74
58973;BME280;44750;52.040;7.472;2022-11-09T05:00:42;99454.38;;;13.85;89.11
58973;BME280;44750;52.040;7.472;2022-11-09T05:05:42;99462.75;;;13.84;89.07
58973;BME280;44750;52.040;7.472;2022-11-09T05:10:42;99472.16;;;13.81;86.99
58973;BME280;44750;52.040;7.472;2022-11-09T05:15:42;99486.56;;;13.75;85.40
58973;BME280;44750;52.040;7.472;2022-11-09T05:20:42;99499.78;;;13.78;83.53
58973;BME280;44750;52.040;7.472;2022-11-09T05:25:43;99539.94;;;13.83;81.35
58973;BME280;44750;52.040;7.472;2022-11-09T05:30:44;99574.91;;;13.86;77.98
58973;BME280;44750;52.040;7.472;2022-11-09T05:35:44;99575.50;;;13.81;76.16
58973;BME280;44750;52.040;7.472;2022-11-09T05:40:49;99599.34;;;13.79;73.27
58973;BME280;44750;52.040;7.472;2022-11-09T05:45:49;99622.78;;;13.80;71.07
58973;BME280;44750;52.040;7.472;2022-11-09T05:50:49;99612.31;;;13.77;68.76
58973;BME280;44750;52.040;7.472;2022-11-09T05:55:52;99614.81;;;13.72;67.69
58973;BME280;44750;52.040;7.472;2022-11-09T06:00:53;99628.59;;;13.70;65.64
58973;BME280;44750;52.040;7.472;2022-11-09T06:05:53;99620.63;;;13.62;64.83
58973;BME280;44750;52.040;7.472;2022-11-09T06:10:58;99637.56;;;13.64;63.48
58973;BME280;44750;52.040;7.472;2022-11-09T06:16:00;99645.47;;;13.59;63.51
58973;BME280;44750;52.040;7.472;2022-11-09T06:21:02;99656.50;;;13.51;64.20
58973;BME280;44750;52.040;7.472;2022-11-09T06:26:05;99652.44;;;13.40;62.95
58973;BME280;44750;52.040;7.472;2022-11-09T06:31:08;99667.19;;;13.31;61.03
58973;BME280;44750;52.040;7.472;2022-11-09T06:36:09;99680.66;;;13.17;59.21
58973;BME280;44750;52.040;7.472;2022-11-09T06:41:10;99694.81;;;13.13;56.15
58973;BME280;44750;52.040;7.472;2022-11-09T06:46:10;99717.16;;;13.08;53.13
58973;BME280;44750;52.040;7.472;2022-11-09T06:51:11;99738.63;;;13.03;50.76
58973;BME280;44750;52.040;7.472;2022-11-09T06:56:11;99741.47;;;12.95;48.88
58973;BME280;44750;52.040;7.472;2022-11-09T07:01:12;99756.19;;;12.85;45.77
58973;BME280;44750;52.040;7.472;2022-11-09T07:06:15;99776.50;;;12.90;43.65
58973;BME280;44750;52.040;7.472;2022-11-09T07:11:15;99767.81;;;12.79;42.38
58973;BME280;44750;52.040;7.472;2022-11-09T07:16:15;99789.53;;;12.79;40.83
58973;BME280;44750;52.040;7.472;2022-11-09T07:21:16;99786.47;;;12.67;39.40
58973;BME280;44750;52.040;7.472;2022-11-09T07:26:16;99814.97;;;12.71;36.32
58973;BME280;44750;52.040;7.472;2022-11-09T07:31:16;99822.03;;;12.73;34.81
58973;BME280;44750;52.040;7.472;2022-11-09T07:36:16;99841.91;;;12.73;32.50
58973;BME280;44750;52.040;7.472;2022-11-09T07:41:17;99871.50;;;12.83;30.12
58973;BME280;44750;52.040;7.472;2022-11-09T07:46:17;99859.78;;;12.82;29.32
58973;BME280;44750;52.040;7.472;2022-11-09T07:51:17;99896.94;;;12.97;26.82
58973;BME280;44750;52.040;7.472;2022-11-09T07:56:17;99919.50;;;13.12;26.02
58973;BME280;44750;52.040;7.472;2022-11-09T08:01:18;99921.94;;;13.22;26.13
58973;BME280;44750;52.040;7.472;2022-11-09T08:06:18;99918.38;;;13.21;27.15
58973;BME280;44750;52.040;7.472;2022-11-09T08:11:18;99932.31;;;13.33;27.16
58973;BME280;44750;52.040;7.472;2022-11-09T08:16:19;99929.41;;;13.35;28.43
58973;BME280;44750;52.040;7.472;2022-11-09T08:21:19;99948.56;;;13.42;28.77
58973;BME280;44750;52.040;7.472;2022-11-09T08:26:19;99948.16;;;13.45;29.25
58973;BME280;44750;52.040;7.472;2022-11-09T08:31:19;99957.34;;;13.59;30.12
58973;BME280;44750;52.040;7.472;2022-11-09T08:36:19;99961.09;;;13.79;32.40
58973;BME280;44750;52.040;7.472;2022-11-09T08:41:20;99975.97;;;13.98;35.33
58973;BME280;44750;52.040;7.472;2022-11-09T08:46:20;99961.56;;;14.04;39.36
58973;BME280;44750;52.040;7.472;2022-11-09T08:51:20;99930.47;;;14.14;43.40
58973;BME280;44750;52.040;7.472;2022-11-09T08:56:24;99936.69;;;14.29;47.66
58973;BME280;44750;52.040;7.472;2022-11-09T09:01:24;99916.00;;;14.35;52.43
58973;BME280;44750;52.040;7.472;2022-11-09T09:06:24;99882.75;;;14.40;58.13
58973;BME280;44750;52.040;7.472;2022-11-09T09:11:25;99826.09;;;14.28;62.58
58973;BME280;44750;52.040;7.472;2022-11-09T09:16:26;99856.84;;;14.50;63.72
58973;BME280;44750;52.040;7.472;2022-11-09T09:21:26;99820.63;;;14.57;67.09
58973;BME280;44750;52.040;7.472;2022-11-09T09:26:26;99766.75;;;14.45;72.91
58973;BME280;44750;52.040;7.472;2022-11-09T09:31:27;99746.03;;;14.51;76.82
58973;BME280;44750;52.040;7.472;2022-11-09T09:36:27;99694.25;;;14.44;80.59
58973;BME280;44750;52.040;7.472;2022-11-09T09:46:41;99643.41;;;14.51;85.07
58973;BME280;44750;52.040;7.472;2022-11-09T09:51:55;99607.94;;;14.38;88.04
58973;BME280;44750;52.040;7.472;2022-11-09T09:56:59;99634.34;;;14.44;87.53
58973;BME280;44750;52.040;7.472;2022-11-09T10:02:00;99612.81;;;14.56;89.63
58973;BME280;44750;52.040;7.472;2022-11-09T10:07:11;99611.34;;;14.53;91.81
58973;BME280;44750;52.040;7.472;2022-11-09T10:28:22;99490.25;;;14.36;100.00
58973;BME280;44750;52.040;7.472;2022-11-09T10:33:27;99434.78;;;14.24;100.00
58973;BME280;44750;52.040;7.472;2022-11-09T10:38:31;99423.25;;;14.21;100.00
58973;BME280;44750;52.040;7.472;2022-11-09T10:43:34;99386.41;;;14.12;100.00
58973;BME280;44750;52.040;7.472;2022-11-09T10:48:36;99341.41;;;14.10;100.00
58973;BME280;44750;52.040;7.472;2022-11-09T10:53:37;99308.94;;;14.21;100.00
58973;BME280;44750;52.040;7.472;2022-11-09T10:58:52;99273.94;;;14.45;100.00
58973;BME280;44750;52.040;7.472;2022-11-09T11:03:54;99162.56;;;14.37;100.00
58973;BME280;44750;52.040;7.472;2022-11-09T11:19:36;99118.31;;;14.48;100.00
58973;BME280;44750;52.040;7.472;2022-11-09T11:25:00;99065.53;;;14.49;100.00
58973;BME280;44750;52.040;7.472;2022-11-09T11:35:12;98969.47;;;14.74;100.00
58973;BME280;44750;52.040;7.472;2022-11-09T11:40:21;98884.00;;;14.68;100.00
58973;BME280;44750;52.040;7.472;2022-11-09T11:50:50;98848.09;;;14.97;100.00
58973;BME280;44750;52.040;7.472;2022-11-09T12:01:15;98720.00;;;14.85;100.00
58973;BME280;44750;52.040;7.472;2022-11-09T12:11:53;98640.31;;;14.90;100.00
58973;BME280;44750;52.040;7.472;2022-11-09T12:17:06;98570.41;;;14.83;100.00
58973;BME280;44750;52.040;7.472;2022-11-09T12:27:41;98500.91;;;14.93;100.00
58973;BME280;44750;52.040;7.472;2022-11-09T12:32:55;98418.25;;;14.99;100.00
58973;BME280;44750;52.040;7.472;2022-11-09T12:43:29;98279.97;;;15.06;100.00
58973;BME280;44750;52.040;7.472;2022-11-09T12:48:32;98235.94;;;15.09;100.00
58973;BME280;44750;52.040;7.472;2022-11-09T12:53:35;98246.81;;;15.09;100.00
58973;BME280;44750;52.040;7.472;2022-11-09T12:58:36;98197.03;;;14.97;100.00
58973;BME280;44750;52.040;7.472;2022-11-09T13:03:50;98158.09;;;14.84;100.00
58973;BME280;44750;52.040;7.472;2022-11-09T13:14:32;98187.47;;;14.82;100.00
58973;BME280;44750;52.040;7.472;2022-11-09T13:29:51;98306.34;;;14.88;100.00
58973;BME280;44750;52.040;7.472;2022-11-09T13:34:59;98265.16;;;14.61;100.00
58973;BME280;44750;52.040;7.472;2022-11-09T13:40:01;98389.81;;;14.59;100.00
58973;BME280;44750;52.040;7.472;2022-11-09T13:45:34;98475.09;;;14.71;100.00
58973;BME280;44750;52.040;7.472;2022-11-09T13:50:36;98514.41;;;14.76;100.00
58973;BME280;44750;52.040;7.472;2022-11-09T13:55:39;98568.56;;;14.96;100.00
58973;BME280;44750;52.040;7.472;2022-11-09T14:00:44;98499.72;;;14.88;100.00
58973;BME280;44750;52.040;7.472;2022-11-09T14:05:48;98410.31;;;14.74;100.00
58973;BME280;44750;52.040;7.472;2022-11-09T14:16:36;98461.25;;;14.73;100.00
58973;BME280;44750;52.040;7.472;2022-11-09T14:21:51;98486.31;;;14.75;100.00
58973;BME280;44750;52.040;7.472;2022-11-09T14:32:37;98397.25;;;14.40;100.00
58973;BME280;44750;52.040;7.472;2022-11-09T14:37:42;98456.88;;;14.30;100.00
58973;BME280;44750;52.040;7.472;2022-11-09T14:43:02;98500.16;;;14.19;100.00
58973;BME280;44750;52.040;7.472;2022-11-09T14:48:05;98620.78;;;14.13;100.00
58973;BME280;44750;52.040;7.472;2022-11-09T14:53:05;98718.41;;;14.21;100.00
58973;BME280;44750;52.040;7.472;2022-11-09T14:58:11;98695.59;;;14.04;100.00
58973;BME280;44750;52.040;7.472;2022-11-09T15:03:26;98795.19;;;14.05;100.00
58973;BME280;44750;52.040;7.472;2022-11-09T15:08:26;98823.00;;;14.07;100.00
58973;BME280;44750;52.040;7.472;2022-11-09T15:13:33;98852.78;;;13.95;100.00
58973;BME280;44750;52.040;7.472;2022-11-09T15:18:35;98906.81;;;13.92;100.00
58973;BME280;44750;52.040;7.472;2022-11-09T15:23:42;98956.69;;;13.79;100.00
58973;BME280;44750;52.040;7.472;2022-11-09T15:28:45;99040.22;;;13.65;100.00
58973;BME280;44750;52.040;7.472;2022-11-09T15:33:51;99127.63;;;13.62;100.00
58973;BME280;44750;52.040;7.472;2022-11-09T15:44:06;99206.03;;;13.45;100.00
58973;BME280;44750;52.040;7.472;2022-11-09T15:49:24;99240.31;;;13.32;100.00
58973;BME280;44750;52.040;7.472;2022-11-09T15:54:24;99305.50;;;13.26;100.00
58973;BME280;44750;52.040;7.472;2022-11-09T15:59:25;99356.06;;;13.13;100.00
58973;BME280;44750;52.040;7.472;2022-11-09T16:04:26;99443.81;;;13.14;100.00
58973;BME280;44750;52.040;7.472;2022-11-09T16:09:26;99482.22;;;13.04;100.00
58973;BME280;44750;52.040;7.472;2022-11-09T16:14:30;99530.22;;;12.97;100.00
58973;BME280;44750;52.040;7.472;2022-11-09T16:19:30;99576.56;;;12.88;100.00
58973;BME280;44750;52.040;7.472;2022-11-09T16:24:31;99628.56;;;12.85;100.00
58973;BME280;44750;52.040;7.472;2022-11-09T16:29:32;99648.34;;;12.79;100.00
58973;BME280;44750;52.040;7.472;2022-11-09T16:34:32;99680.41;;;12.69;100.00
58973;BME280;44750;52.040;7.472;2022-11-09T16:39:33;99735.53;;;12.69;100.00
58973;BME280;44750;52.040;7.472;2022-11-09T16:44:38;99758.41;;;12.60;100.00
58973;BME280;44750;52.040;7.472;2022-11-09T16:49:39;99785.94;;;12.57;100.00
58973;BME280;44750;52.040;7.472;2022-11-09T16:54:40;99799.44;;;12.50;100.00
58973;BME280;44750;52.040;7.472;2022-11-09T16:59:40;99812.91;;;12.44;100.00
58973;BME280;44750;52.040;7.472;2022-11-09T17:04:40;99840.50;;;12.47;100.00
58973;BME280;44750;52.040;7.472;2022-11-09T17:09:40;99839.97;;;12.37;100.00
58973;BME280;44750;52.040;7.472;2022-11-09T17:14:41;99877.09;;;12.36;99.54
58973;BME280;44750;52.040;7.472;2022-11-09T17:19:41;99903.41;;;12.36;97.08
58973;BME280;44750;52.040;7.472;2022-11-09T17:24:41;99945.72;;;12.45;93.54
58973;BME280;44750;52.040;7.472;2022-11-09T17:29:41;99940.63;;;12.42;92.24
58973;BME280;44750;52.040;7.472;2022-11-09T17:34:42;99962.31;;;12.50;91.02
58973;BME280;44750;52.040;7.472;2022-11-09T17:39:42;99956.56;;;12.45;91.39
58973;BME280;44750;52.040;7.472;2022-11-09T17:44:42;99978.59;;;12.50;90.63
58973;BME280;44750;52.040;7.472;2022-11-09T17:49:42;99997.41;;;12.52;90.37
58973;BME280;44750;52.040;7.472;2022-11-09T17:54:43;99991.00;;;12.45;90.92
58973;BME280;44750;52.040;7.472;2022-11-09T17:59:43;100012.25;;;12.41;89.92
58973;BME280;44750;52.040;7.472;2022-11-09T18:04:43;100012.97;;;12.35;89.15
58973;BME280;44750;52.040;7.472;2022-11-09T18:09:43;100040.31;;;12.33;87.82
58973;BME280;44750;52.040;7.472;2022-11-09T18:14:43;100061.88;;;12.27;86.47
58973;BME280;44750;52.040;7.472;2022-11-09T18:19:44;100062.97;;;12.17;84.34
58973;BME280;44750;52.040;7.472;2022-11-09T18:24:44;100084.84;;;12.16;82.18
58973;BME280;44750;52.040;7.472;2022-11-09T18:29:44;100097.56;;;12.15;80.44
58973;BME280;44750;52.040;7.472;2022-11-09T18:34:44;100125.06;;;12.12;78.38
58973;BME280;44750;52.040;7.472;2022-11-09T18:39:44;100116.78;;;12.06;77.06
58973;BME280;44750;52.040;7.472;2022-11-09T18:44:45;100146.44;;;12.07;74.82
58973;BME280;44750;52.040;7.472;2022-11-09T18:49:45;100149.03;;;12.00;72.81
58973;BME280;44750;52.040;7.472;2022-11-09T18:54:45;100169.16;;;12.06;70.47
58973;BME280;44750;52.040;7.472;2022-11-09T18:59:45;100172.22;;;12.03;68.81
58973;BME280;44750;52.040;7.472;2022-11-09T19:04:48;100183.63;;;11.98;67.41
58973;BME280;44750;52.040;7.472;2022-11-09T19:09:49;100208.19;;;11.97;65.42
58973;BME280;44750;52.040;7.472;2022-11-09T19:14:49;100230.56;;;11.91;63.15
58973;BME280;44750;52.040;7.472;2022-11-09T19:19:49;100258.06;;;11.96;60.88
58973;BME280;44750;52.040;7.472;2022-11-09T19:24:50;100255.00;;;11.82;59.14
58973;BME280;44750;52.040;7.472;2022-11-09T19:29:53;100255.69;;;11.76;57.17
58973;BME280;44750;52.040;7.472;2022-11-09T19:34:54;100277.72;;;11.73;55.24
58973;BME280;44750;52.040;7.472;2022-11-09T19:39:54;100292.78;;;11.67;54.16
58973;BME280;44750;52.040;7.472;2022-11-09T19:44:54;100325.00;;;11.62;52.18
58973;BME280;44750;52.040;7.472;2022-11-09T19:49:54;100323.97;;;11.55;50.41
58973;BME280;44750;52.040;7.472;2022-11-09T19:54:55;100344.47;;;11.49;49.63
58973;BME280;44750;52.040;7.472;2022-11-09T19:59:55;100365.47;;;11.47;46.84
58973;BME280;44750;52.040;7.472;2022-11-09T20:04:55;100391.75;;;11.47;45.48
58973;BME280;44750;52.040;7.472;2022-11-09T20:09:56;100391.91;;;11.37;44.92
58973;BME280;44750;52.040;7.472;2022-11-09T20:14:56;100412.53;;;11.38;43.40
58973;BME280;44750;52.040;7.472;2022-11-09T20:19:56;100446.59;;;11.41;41.89
58973;BME280;44750;52.040;7.472;2022-11-09T20:24:57;100452.16;;;11.31;40.72
58973;BME280;44750;52.040;7.472;2022-11-09T20:29:57;100459.78;;;11.27;39.93
58973;BME280;44750;52.040;7.472;2022-11-09T20:34:57;100479.75;;;11.26;37.55
58973;BME280;44750;52.040;7.472;2022-11-09T20:39:57;100499.91;;;11.24;36.35
58973;BME280;44750;52.040;7.472;2022-11-09T20:44:58;100510.06;;;11.21;34.15
58973;BME280;44750;52.040;7.472;2022-11-09T20:49:58;100529.72;;;11.24;32.51
58973;BME280;44750;52.040;7.472;2022-11-09T20:54:58;100548.31;;;11.18;30.89
58973;BME280;44750;52.040;7.472;2022-11-09T20:59:58;100562.53;;;11.20;29.38
58973;BME280;44750;52.040;7.472;2022-11-09T21:04:58;100573.31;;;11.12;27.61
58973;BME280;44750;52.040;7.472;2022-11-09T21:09:59;100586.66;;;11.06;24.85
58973;BME280;44750;52.040;7.472;2022-11-09T21:14:59;100621.53;;;11.09;21.61
58973;BME280;44750;52.040;7.472;2022-11-09T21:19:59;100630.31;;;11.02;19.98
58973;BME280;44750;52.040;7.472;2022-11-09T21:24:59;100641.84;;;11.04;17.37
58973;BME280;44750;52.040;7.472;2022-11-09T21:30:00;100639.25;;;10.95;15.22
58973;BME280;44750;52.040;7.472;2022-11-09T21:35:00;100678.53;;;10.99;12.51
58973;BME280;44750;52.040;7.472;2022-11-09T21:40:00;100676.00;;;10.97;10.61
58973;BME280;44750;52.040;7.472;2022-11-09T21:45:01;100695.94;;;10.96;9.23
58973;BME280;44750;52.040;7.472;2022-11-09T21:50:01;100687.22;;;10.84;7.84
58973;BME280;44750;52.040;7.472;2022-11-09T21:55:01;100692.56;;;10.76;6.01
58973;BME280;44750;52.040;7.472;2022-11-09T22:00:02;100726.03;;;10.75;3.59
58973;BME280;44750;52.040;7.472;2022-11-09T22:05:02;100743.91;;;10.68;1.12
58973;BME280;44750;52.040;7.472;2022-11-09T22:10:03;100756.22;;;10.62;0.00
58973;BME280;44750;52.040;7.472;2022-11-09T22:15:03;100782.41;;;10.62;0.00
58973;BME280;44750;52.040;7.472;2022-11-09T22:20:04;100802.38;;;10.61;0.00
58973;BME280;44750;52.040;7.472;2022-11-09T22:25:05;100815.53;;;10.56;0.00
58973;BME280;44750;52.040;7.472;2022-11-09T22:30:06;100829.34;;;10.52;0.00
58973;BME280;44750;52.040;7.472;2022-11-09T22:35:07;100854.56;;;10.53;0.00
58973;BME280;44750;52.040;7.472;2022-11-09T22:40:08;100855.16;;;10.47;0.00
58973;BME280;44750;52.040;7.472;2022-11-09T22:45:08;100869.00;;;10.44;0.00
58973;BME280;44750;52.040;7.472;2022-11-09T22:50:09;100882.81;;;10.41;0.00
58973;BME280;44750;52.040;7.472;2022-11-09T22:55:09;100897.63;;;10.36;0.00
58973;BME280;44750;52.040;7.472;2022-11-09T23:00:12;100910.56;;;10.33;0.00
58973;BME280;44750;52.040;7.472;2022-11-09T23:05:13;100938.22;;;10.36;0.00
58973;BME280;44750;52.040;7.472;2022-11-09T23:10:13;100950.59;;;10.29;0.00
58973;BME280;44750;52.040;7.472;2022-11-09T23:15:13;100977.81;;;10.28;0.00
58973;BME280;44750;52.040;7.472;2022-11-09T23:20:14;100995.63;;;10.30;0.00
58973;BME280;44750;52.040;7.472;2022-11-09T23:25:14;101004.16;;;10.26;0.00
58973;BME280;44750;52.040;7.472;2022-11-09T23:30:15;101020.38;;;10.26;0.00
58973;BME280;44750;52.040;7.472;2022-11-09T23:35:16;101046.16;;;10.30;0.00
58973;BME280;44750;52.040;7.472;2022-11-09T23:40:16;101051.13;;;10.25;0.00
58973;BME280;44750;52.040;7.472;2022-11-09T23:45:16;101076.50;;;10.24;0.00
58973;BME280;44750;52.040;7.472;2022-11-09T23:50:17;101083.75;;;10.23;0.00
58973;BME280;44750;52.040;7.472;2022-11-09T23:55:17;101087.16;;;10.15;0.00
